sensor_id;sensor_type;location;lat;lon;timestamp;pressure;altitude;pressure_sealevel;temperature;humidity
83633;BME280;73595;53.084;6.696;2023-11-21T01:37:57;101123.75;;;7.80;97.86
83633;BME280;73595;53.084;6.696;2023-11-21T01:40:23;101126.25;;;7.82;97.99
83633;BME280;73595;53.084;6.696;2023-11-21T01:42:49;101133.31;;;7.81;98.05
83633;BME280;73595;53.084;6.696;2023-11-21T01:45:18;101123.59;;;7.82;98.26
83633;BME280;73595;53.084;6.696;2023-11-21T01:47:43;101130.53;;;7.83;98.08
83633;BME280;73595;53.084;6.696;2023-11-21T01:50:16;101127.75;;;7.84;98.28
83633;BME280;73595;53.084;6.696;2023-11-21T01:52:43;101132.91;;;7.86;98.16
83633;BME280;73595;53.084;6.696;2023-11-21T01:55:09;101133.84;;;7.85;98.32
83633;BME280;73595;53.084;6.696;2023-11-21T01:57:35;101129.41;;;7.85;98.21
83633;BME280;73595;53.084;6.696;2023-11-21T02:00:04;101144.41;;;7.85;98.39
83633;BME280;73595;53.084;6.696;2023-11-21T02:02:41;101142.47;;;7.87;98.36
83633;BME280;73595;53.084;6.696;2023-11-21T02:05:07;101140.66;;;7.87;98.18
83633;BME280;73595;53.084;6.696;2023-11-21T02:07:34;101148.59;;;7.87;98.34
83633;BME280;73595;53.084;6.696;2023-11-21T02:09:59;101148.59;;;7.87;98.41
83633;BME280;73595;53.084;6.696;2023-11-21T02:12:25;101153.84;;;7.87;98.47
83633;BME280;73595;53.084;6.696;2023-11-21T02:14:51;101155.38;;;7.90;98.52
83633;BME280;73595;53.084;6.696;2023-11-21T02:17:17;101163.00;;;7.93;98.44
83633;BME280;73595;53.084;6.696;2023-11-21T02:19:43;101169.25;;;7.92;98.59
83633;BME280;73595;53.084;6.696;2023-11-21T02:22:09;101169.25;;;7.92;98.25
83633;BME280;73595;53.084;6.696;2023-11-21T02:24:36;101162.19;;;7.93;98.68
83633;BME280;73595;53.084;6.696;2023-11-21T02:27:01;101164.66;;;7.94;98.30
83633;BME280;73595;53.084;6.696;2023-11-21T02:29:27;101176.88;;;7.95;98.70
83633;BME280;73595;53.084;6.696;2023-11-21T02:31:53;101185.47;;;7.97;98.58
83633;BME280;73595;53.084;6.696;2023-11-21T02:34:20;101187.13;;;7.98;98.61
83633;BME280;73595;53.084;6.696;2023-11-21T02:36:45;101194.09;;;7.99;98.57
83633;BME280;73595;53.084;6.696;2023-11-21T02:39:10;101184.50;;;7.98;98.65
83633;BME280;73595;53.084;6.696;2023-11-21T02:41:39;101188.81;;;7.99;98.52
83633;BME280;73595;53.084;6.696;2023-11-21T02:44:07;101195.75;;;8.00;98.73
83633;BME280;73595;53.084;6.696;2023-11-21T02:46:33;101195.75;;;8.00;98.89
83633;BME280;73595;53.084;6.696;2023-11-21T02:49:02;101206.00;;;8.03;98.73
83633;BME280;73595;53.084;6.696;2023-11-21T02:51:27;101202.38;;;8.04;99.04
83633;BME280;73595;53.084;6.696;2023-11-21T02:53:53;101199.91;;;8.03;98.89
83633;BME280;73595;53.084;6.696;2023-11-21T02:56:19;101197.09;;;8.04;98.94
83633;BME280;73595;53.084;6.696;2023-11-21T02:58:45;101192.81;;;8.03;98.81
83633;BME280;73595;53.084;6.696;2023-11-21T03:01:10;101197.81;;;8.06;98.97
83633;BME280;73595;53.084;6.696;2023-11-21T03:03:36;101195.19;;;8.06;98.70
83633;BME280;73595;53.084;6.696;2023-11-21T03:06:08;101196.97;;;8.06;98.97
83633;BME280;73595;53.084;6.696;2023-11-21T03:08:33;101197.50;;;8.09;98.90
83633;BME280;73595;53.084;6.696;2023-11-21T03:10:58;101203.50;;;8.11;99.12
83633;BME280;73595;53.084;6.696;2023-11-21T03:13:24;101205.16;;;8.12;98.92
83633;BME280;73595;53.084;6.696;2023-11-21T03:15:49;101200.84;;;8.11;99.15
83633;BME280;73595;53.084;6.696;2023-11-21T03:18:15;101204.19;;;8.13;99.02
83633;BME280;73595;53.084;6.696;2023-11-21T03:20:40;101211.25;;;8.13;99.25
83633;BME280;73595;53.084;6.696;2023-11-21T03:23:06;101216.53;;;8.13;99.24
83633;BME280;73595;53.084;6.696;2023-11-21T03:25:31;101220.00;;;8.13;99.20
83633;BME280;73595;53.084;6.696;2023-11-21T03:27:57;101226.28;;;8.12;99.51
83633;BME280;73595;53.084;6.696;2023-11-21T03:30:22;101231.53;;;8.12;99.35
83633;BME280;73595;53.084;6.696;2023-11-21T03:32:48;101234.19;;;8.12;99.33
83633;BME280;73595;53.084;6.696;2023-11-21T03:35:13;101229.19;;;8.09;99.61
83633;BME280;73595;53.084;6.696;2023-11-21T03:37:39;101235.00;;;8.13;99.58
83633;BME280;73595;53.084;6.696;2023-11-21T03:40:06;101243.91;;;8.12;99.57
83633;BME280;73595;53.084;6.696;2023-11-21T03:42:33;101238.75;;;8.10;99.50
83633;BME280;73595;53.084;6.696;2023-11-21T03:44:58;101248.47;;;8.10;99.46
83633;BME280;73595;53.084;6.696;2023-11-21T03:47:24;101250.13;;;8.11;99.62
83633;BME280;73595;53.084;6.696;2023-11-21T03:49:49;101251.84;;;8.12;99.51
83633;BME280;73595;53.084;6.696;2023-11-21T03:52:14;101252.78;;;8.11;99.49
83633;BME280;73595;53.084;6.696;2023-11-21T03:54:40;101251.84;;;8.12;99.51
83633;BME280;73595;53.084;6.696;2023-11-21T03:57:05;101254.47;;;8.12;99.40
83633;BME280;73595;53.084;6.696;2023-11-21T03:59:31;101264.88;;;8.13;99.30
83633;BME280;73595;53.084;6.696;2023-11-21T04:01:56;101266.53;;;8.14;99.24
83633;BME280;73595;53.084;6.696;2023-11-21T04:04:24;101274.59;;;8.13;99.36
83633;BME280;73595;53.084;6.696;2023-11-21T04:06:49;101263.22;;;8.12;99.29
83633;BME280;73595;53.084;6.696;2023-11-21T04:09:16;101270.97;;;8.14;99.40
83633;BME280;73595;53.084;6.696;2023-11-21T04:11:42;101273.63;;;8.14;99.29
83633;BME280;73595;53.084;6.696;2023-11-21T04:14:08;101284.84;;;8.16;99.39
83633;BME280;73595;53.084;6.696;2023-11-21T04:16:33;101281.25;;;8.17;99.17
83633;BME280;73595;53.084;6.696;2023-11-21T04:18:59;101286.66;;;8.15;99.36
83633;BME280;73595;53.084;6.696;2023-11-21T04:21:24;101294.59;;;8.15;99.20
83633;BME280;73595;53.084;6.696;2023-11-21T04:23:49;101293.59;;;8.17;99.52
83633;BME280;73595;53.084;6.696;2023-11-21T04:26:15;101298.88;;;8.17;99.40
83633;BME280;73595;53.084;6.696;2023-11-21T04:28:40;101296.25;;;8.17;99.53
83633;BME280;73595;53.084;6.696;2023-11-21T04:31:06;101301.69;;;8.15;99.28
83633;BME280;73595;53.084;6.696;2023-11-21T04:33:32;101299.03;;;8.15;99.30
83633;BME280;73595;53.084;6.696;2023-11-21T04:35:57;101299.19;;;8.13;99.50
83633;BME280;73595;53.084;6.696;2023-11-21T04:38:23;101310.44;;;8.15;99.58
83633;BME280;73595;53.084;6.696;2023-11-21T04:40:50;101310.44;;;8.15;99.59
83633;BME280;73595;53.084;6.696;2023-11-21T04:43:15;101327.91;;;8.17;99.56
83633;BME280;73595;53.084;6.696;2023-11-21T04:45:41;101327.91;;;8.17;99.24
83633;BME280;73595;53.084;6.696;2023-11-21T04:48:06;101338.47;;;8.17;99.47
83633;BME280;73595;53.084;6.696;2023-11-21T04:50:33;101338.78;;;8.13;99.45
83633;BME280;73595;53.084;6.696;2023-11-21T04:52:58;101346.28;;;8.18;99.53
83633;BME280;73595;53.084;6.696;2023-11-21T04:55:23;101353.47;;;8.16;99.46
83633;BME280;73595;53.084;6.696;2023-11-21T04:57:49;101347.38;;;8.15;99.44
83633;BME280;73595;53.084;6.696;2023-11-21T05:00:14;101367.50;;;8.17;99.37
83633;BME280;73595;53.084;6.696;2023-11-21T05:02:41;101370.16;;;8.17;99.47
83633;BME280;73595;53.084;6.696;2023-11-21T05:05:06;101380.03;;;8.14;99.55
83633;BME280;73595;53.084;6.696;2023-11-21T05:07:32;101377.38;;;8.14;99.39
83633;BME280;73595;53.084;6.696;2023-11-21T05:10:00;101386.97;;;8.15;99.32
83633;BME280;73595;53.084;6.696;2023-11-21T05:12:30;101388.91;;;8.13;99.35
83633;BME280;73595;53.084;6.696;2023-11-21T05:14:59;101397.00;;;8.12;99.54
83633;BME280;73595;53.084;6.696;2023-11-21T05:17:24;101403.78;;;8.14;99.68
83633;BME280;73595;53.084;6.696;2023-11-21T05:19:50;101395.88;;;8.14;99.60
83633;BME280;73595;53.084;6.696;2023-11-21T05:22:15;101398.34;;;8.16;99.51
83633;BME280;73595;53.084;6.696;2023-11-21T05:24:40;101414.03;;;8.18;99.46
83633;BME280;73595;53.084;6.696;2023-11-21T05:27:05;101413.34;;;8.15;99.67
83633;BME280;73595;53.084;6.696;2023-11-21T05:29:31;101421.28;;;8.15;99.73
83633;BME280;73595;53.084;6.696;2023-11-21T05:31:56;101426.28;;;8.19;99.74
83633;BME280;73595;53.084;6.696;2023-11-21T05:34:21;101431.56;;;8.19;100.00
83633;BME280;73595;53.084;6.696;2023-11-21T05:36:49;101427.13;;;8.19;99.70
83633;BME280;73595;53.084;6.696;2023-11-21T05:39:14;101436.72;;;8.20;99.99
83633;BME280;73595;53.084;6.696;2023-11-21T05:41:42;101437.38;;;8.22;99.72
83633;BME280;73595;53.084;6.696;2023-11-21T05:44:08;101438.22;;;8.23;100.00
83633;BME280;73595;53.084;6.696;2023-11-21T05:46:34;101443.50;;;8.23;100.00
83633;BME280;73595;53.084;6.696;2023-11-21T05:48:59;101448.53;;;8.26;99.99
83633;BME280;73595;53.084;6.696;2023-11-21T05:51:25;101460.06;;;8.25;99.68
83633;BME280;73595;53.084;6.696;2023-11-21T05:53:50;101461.84;;;8.24;99.72
83633;BME280;73595;53.084;6.696;2023-11-21T05:56:15;101461.72;;;8.26;99.55
83633;BME280;73595;53.084;6.696;2023-11-21T05:58:41;101462.69;;;8.25;99.36
83633;BME280;73595;53.084;6.696;2023-11-21T06:01:06;101472.13;;;8.27;99.49
83633;BME280;73595;53.084;6.696;2023-11-21T06:03:34;101481.03;;;8.26;98.91
83633;BME280;73595;53.084;6.696;2023-11-21T06:06:00;101476.84;;;8.24;98.60
83633;BME280;73595;53.084;6.696;2023-11-21T06:15:26;101502.56;;;8.22;98.30
83633;BME280;73595;53.084;6.696;2023-11-21T06:58:25;101586.19;;;8.21;98.33
83633;BME280;73595;53.084;6.696;2023-11-21T07:01:43;101584.78;;;8.17;98.52
83633;BME280;73595;53.084;6.696;2023-11-21T07:07:44;101591.31;;;8.13;98.17
83633;BME280;73595;53.084;6.696;2023-11-21T12:36:03;102113.13;;;7.90;82.66
83633;BME280;73595;53.084;6.696;2023-11-21T12:38:34;102118.66;;;7.87;82.80
83633;BME280;73595;53.084;6.696;2023-11-21T12:41:03;102111.72;;;7.86;81.80
83633;BME280;73595;53.084;6.696;2023-11-21T12:43:28;102117.81;;;7.86;82.94
83633;BME280;73595;53.084;6.696;2023-11-21T12:46:12;102113.59;;;7.84;82.39
83633;BME280;73595;53.084;6.696;2023-11-21T12:48:41;102119.34;;;7.78;80.84
83633;BME280;73595;53.084;6.696;2023-11-21T12:51:07;102118.19;;;7.93;79.43
83633;BME280;73595;53.084;6.696;2023-11-21T12:53:33;102125.13;;;8.05;80.21
83633;BME280;73595;53.084;6.696;2023-11-21T12:56:06;102130.28;;;8.07;80.10
83633;BME280;73595;53.084;6.696;2023-11-21T12:58:34;102133.00;;;8.28;79.91
83633;BME280;73595;53.084;6.696;2023-11-21T13:01:00;102133.84;;;8.28;79.89
83633;BME280;73595;53.084;6.696;2023-11-21T13:03:29;102133.00;;;8.28;80.14
83633;BME280;73595;53.084;6.696;2023-11-21T13:05:55;102141.41;;;8.33;80.62
83633;BME280;73595;53.084;6.696;2023-11-21T13:08:23;102140.44;;;8.23;80.43
83633;BME280;73595;53.084;6.696;2023-11-21T13:10:49;102144.53;;;8.15;79.69
83633;BME280;73595;53.084;6.696;2023-11-21T13:13:15;102142.88;;;8.14;80.44
83633;BME280;73595;53.084;6.696;2023-11-21T13:15:50;102149.22;;;8.23;82.35
83633;BME280;73595;53.084;6.696;2023-11-21T13:18:16;102150.06;;;8.12;80.61
83633;BME280;73595;53.084;6.696;2023-11-21T13:20:42;102157.88;;;8.14;80.88
83633;BME280;73595;53.084;6.696;2023-11-21T13:23:11;102158.44;;;8.18;82.31
83633;BME280;73595;53.084;6.696;2023-11-21T13:25:41;102155.94;;;8.16;82.63
83633;BME280;73595;53.084;6.696;2023-11-21T13:28:07;102164.13;;;8.13;81.78
83633;BME280;73595;53.084;6.696;2023-11-21T13:30:33;102155.84;;;8.06;81.48
83633;BME280;73595;53.084;6.696;2023-11-21T13:33:04;102158.97;;;8.00;81.04
83633;BME280;73595;53.084;6.696;2023-11-21T13:35:35;102160.97;;;7.97;81.40
83633;BME280;73595;53.084;6.696;2023-11-21T13:38:09;102158.47;;;7.95;82.06
83633;BME280;73595;53.084;6.696;2023-11-21T13:40:35;102167.47;;;7.93;82.10
83633;BME280;73595;53.084;6.696;2023-11-21T13:43:07;102164.34;;;7.87;83.75
83633;BME280;73595;53.084;6.696;2023-11-21T13:45:35;102170.34;;;7.90;83.40
83633;BME280;73595;53.084;6.696;2023-11-21T13:48:01;102180.66;;;7.81;83.60
83633;BME280;73595;53.084;6.696;2023-11-21T13:50:26;102191.78;;;7.85;83.16
83633;BME280;73595;53.084;6.696;2023-11-21T13:52:58;102189.16;;;7.85;84.34
83633;BME280;73595;53.084;6.696;2023-11-21T13:55:29;102197.09;;;7.74;82.21
83633;BME280;73595;53.084;6.696;2023-11-21T13:57:54;102200.31;;;7.77;83.74
83633;BME280;73595;53.084;6.696;2023-11-21T14:00:19;102207.88;;;7.82;84.11
83633;BME280;73595;53.084;6.696;2023-11-21T14:03:03;102214.47;;;7.76;83.42
83633;BME280;73595;53.084;6.696;2023-11-21T14:05:33;102218.19;;;7.74;83.93
83633;BME280;73595;53.084;6.696;2023-11-21T14:07:59;102228.38;;;7.67;83.58
83633;BME280;73595;53.084;6.696;2023-11-21T14:10:29;102219.38;;;7.70;84.41
83633;BME280;73595;53.084;6.696;2023-11-21T14:13:05;102227.75;;;7.64;84.42
83633;BME280;73595;53.084;6.696;2023-11-21T14:15:30;102226.28;;;7.59;84.53
83633;BME280;73595;53.084;6.696;2023-11-21T14:17:58;102224.41;;;7.62;84.44
83633;BME280;73595;53.084;6.696;2023-11-21T14:20:24;102231.81;;;7.56;84.89
83633;BME280;73595;53.084;6.696;2023-11-21T14:22:50;102245.72;;;7.58;85.78
83633;BME280;73595;53.084;6.696;2023-11-21T14:25:15;102248.72;;;7.54;86.36
83633;BME280;73595;53.084;6.696;2023-11-21T14:27:42;102255.03;;;7.51;85.61
83633;BME280;73595;53.084;6.696;2023-11-21T14:30:07;102257.69;;;7.51;85.66
83633;BME280;73595;53.084;6.696;2023-11-21T14:32:33;102259.59;;;7.49;86.07
83633;BME280;73595;53.084;6.696;2023-11-21T14:34:58;102265.91;;;7.47;86.39
83633;BME280;73595;53.084;6.696;2023-11-21T14:37:27;102266.88;;;7.46;85.84
83633;BME280;73595;53.084;6.696;2023-11-21T14:39:54;102261.00;;;7.42;85.11
83633;BME280;73595;53.084;6.696;2023-11-21T14:42:20;102259.09;;;7.44;84.53
83633;BME280;73595;53.084;6.696;2023-11-21T14:44:50;102272.41;;;7.43;84.41
83633;BME280;73595;53.084;6.696;2023-11-21T14:47:16;102276.00;;;7.42;85.67
83633;BME280;73595;53.084;6.696;2023-11-21T14:49:42;102282.31;;;7.39;85.92
83633;BME280;73595;53.084;6.696;2023-11-21T14:52:23;102284.88;;;7.41;86.78
83633;BME280;73595;53.084;6.696;2023-11-21T14:55:17;102288.66;;;7.37;84.94
83633;BME280;73595;53.084;6.696;2023-11-21T15:03:05;102303.25;;;7.29;84.29
83633;BME280;73595;53.084;6.696;2023-11-21T15:05:34;102308.53;;;7.29;84.11
83633;BME280;73595;53.084;6.696;2023-11-21T15:08:04;102321.84;;;7.28;84.63
83633;BME280;73595;53.084;6.696;2023-11-21T15:10:46;102317.59;;;7.25;85.01
83633;BME280;73595;53.084;6.696;2023-11-21T15:13:20;102333.03;;;7.19;85.30
83633;BME280;73595;53.084;6.696;2023-11-21T15:15:51;102342.72;;;7.18;85.60
83633;BME280;73595;53.084;6.696;2023-11-21T15:19:08;102346.19;;;7.19;85.64
83633;BME280;73595;53.084;6.696;2023-11-21T15:22:17;102347.38;;;7.15;85.88
83633;BME280;73595;53.084;6.696;2023-11-21T15:25:38;102351.19;;;7.11;86.34
83633;BME280;73595;53.084;6.696;2023-11-21T15:28:44;102347.59;;;7.12;86.97
83633;BME280;73595;53.084;6.696;2023-11-21T15:31:49;102349.00;;;7.04;87.02
83633;BME280;73595;53.084;6.696;2023-11-21T15:38:27;102367.34;;;6.93;87.49
83633;BME280;73595;53.084;6.696;2023-11-21T15:45:15;102380.09;;;6.87;88.08
83633;BME280;73595;53.084;6.696;2023-11-21T15:48:36;102376.31;;;6.91;88.54
83633;BME280;73595;53.084;6.696;2023-11-21T15:51:53;102378.53;;;6.84;86.68
83633;BME280;73595;53.084;6.696;2023-11-21T15:55:13;102386.66;;;6.81;86.75
83633;BME280;73595;53.084;6.696;2023-11-21T15:58:43;102394.25;;;6.73;87.49
83633;BME280;73595;53.084;6.696;2023-11-21T16:04:24;102399.63;;;6.59;85.80
83633;BME280;73595;53.084;6.696;2023-11-21T16:07:54;102410.88;;;6.48;85.75
83633;BME280;73595;53.084;6.696;2023-11-21T16:17:02;102428.16;;;6.39;84.36
83633;BME280;73595;53.084;6.696;2023-11-21T16:20:11;102432.34;;;6.29;85.74
83633;BME280;73595;53.084;6.696;2023-11-21T16:23:26;102437.56;;;6.16;86.24
83633;BME280;73595;53.084;6.696;2023-11-21T16:26:23;102447.75;;;6.08;86.93
83633;BME280;73595;53.084;6.696;2023-11-21T16:29:14;102442.78;;;6.04;87.40
83633;BME280;73595;53.084;6.696;2023-11-21T16:31:39;102450.34;;;5.95;87.77
83633;BME280;73595;53.084;6.696;2023-11-21T16:34:27;102447.00;;;5.93;87.47
83633;BME280;73595;53.084;6.696;2023-11-21T16:37:00;102448.56;;;5.96;87.57
83633;BME280;73595;53.084;6.696;2023-11-21T16:40:22;102455.03;;;5.90;88.07
83633;BME280;73595;53.084;6.696;2023-11-21T16:43:15;102462.59;;;5.82;88.27
83633;BME280;73595;53.084;6.696;2023-11-21T16:45:48;102463.13;;;5.87;88.82
83633;BME280;73595;53.084;6.696;2023-11-21T16:48:37;102460.59;;;5.86;88.61
83633;BME280;73595;53.084;6.696;2023-11-21T16:51:46;102474.59;;;5.86;88.74
83633;BME280;73595;53.084;6.696;2023-11-21T16:54:44;102476.34;;;5.86;88.92
83633;BME280;73595;53.084;6.696;2023-11-21T16:57:33;102483.41;;;5.85;89.25
83633;BME280;73595;53.084;6.696;2023-11-21T17:00:24;102487.38;;;5.92;89.41
83633;BME280;73595;53.084;6.696;2023-11-21T17:03:13;102499.00;;;5.88;89.87
83633;BME280;73595;53.084;6.696;2023-11-21T17:05:40;102507.75;;;5.89;89.72
83633;BME280;73595;53.084;6.696;2023-11-21T17:14:41;102514.53;;;5.93;89.04
83633;BME280;73595;53.084;6.696;2023-11-21T17:17:51;102513.28;;;5.98;88.83
83633;BME280;73595;53.084;6.696;2023-11-21T17:21:03;102528.34;;;5.96;88.59
83633;BME280;73595;53.084;6.696;2023-11-21T17:23:58;102547.69;;;5.95;88.94
83633;BME280;73595;53.084;6.696;2023-11-21T17:27:04;102548.63;;;5.94;88.85
83633;BME280;73595;53.084;6.696;2023-11-21T17:29:33;102545.06;;;5.95;88.29
83633;BME280;73595;53.084;6.696;2023-11-21T17:32:00;102552.13;;;5.95;88.75
83633;BME280;73595;53.084;6.696;2023-11-21T17:34:26;102564.44;;;5.94;88.56
83633;BME280;73595;53.084;6.696;2023-11-21T17:36:52;102558.31;;;5.94;88.83
83633;BME280;73595;53.084;6.696;2023-11-21T18:04:21;102600.88;;;5.86;88.26
83633;BME280;73595;53.084;6.696;2023-11-21T18:40:57;102630.09;;;5.67;89.52
83633;BME280;73595;53.084;6.696;2023-11-21T18:50:03;102643.66;;;5.60;88.98
83633;BME280;73595;53.084;6.696;2023-11-21T18:52:28;102652.78;;;5.54;89.28
83633;BME280;73595;53.084;6.696;2023-11-21T18:54:54;102654.38;;;5.57;89.41
83633;BME280;73595;53.084;6.696;2023-11-21T18:57:19;102654.19;;;5.60;88.96
83633;BME280;73595;53.084;6.696;2023-11-21T18:59:46;102655.22;;;5.57;89.00
83633;BME280;73595;53.084;6.696;2023-11-21T19:02:11;102668.28;;;5.59;89.48
83633;BME280;73595;53.084;6.696;2023-11-21T19:04:43;102671.47;;;5.64;88.68
83633;BME280;73595;53.084;6.696;2023-11-21T19:07:11;102673.38;;;5.62;88.73
83633;BME280;73595;53.084;6.696;2023-11-21T19:09:37;102676.94;;;5.61;88.36
83633;BME280;73595;53.084;6.696;2023-11-21T19:12:03;102692.41;;;5.65;88.20
83633;BME280;73595;53.084;6.696;2023-11-21T19:14:29;102685.00;;;5.72;87.95
83633;BME280;73595;53.084;6.696;2023-11-21T19:16:57;102692.25;;;5.68;87.91
83633;BME280;73595;53.084;6.696;2023-11-21T19:19:25;102682.75;;;5.66;87.69
83633;BME280;73595;53.084;6.696;2023-11-21T19:21:51;102687.94;;;5.67;87.80
83633;BME280;73595;53.084;6.696;2023-11-21T19:37:23;102697.28;;;5.43;88.63
83633;BME280;73595;53.084;6.696;2023-11-21T19:40:05;102701.19;;;5.36;89.09
83633;BME280;73595;53.084;6.696;2023-11-21T19:42:40;102703.63;;;5.39;88.18
83633;BME280;73595;53.084;6.696;2023-11-21T19:45:16;102707.56;;;5.32;88.69
83633;BME280;73595;53.084;6.696;2023-11-21T19:48:01;102708.59;;;5.29;88.50
83633;BME280;73595;53.084;6.696;2023-11-21T19:50:38;102710.53;;;5.26;88.91
83633;BME280;73595;53.084;6.696;2023-11-21T19:56:16;102725.00;;;5.03;90.09
83633;BME280;73595;53.084;6.696;2023-11-21T19:58:43;102730.69;;;4.95;90.27
83633;BME280;73595;53.084;6.696;2023-11-21T20:01:22;102726.34;;;4.94;90.26
83633;BME280;73595;53.084;6.696;2023-11-21T20:03:47;102729.19;;;4.91;90.13
83633;BME280;73595;53.084;6.696;2023-11-21T20:06:13;102732.91;;;4.87;90.54
83633;BME280;73595;53.084;6.696;2023-11-21T20:08:38;102731.34;;;4.83;90.66
83633;BME280;73595;53.084;6.696;2023-11-21T20:11:04;102723.75;;;4.78;90.57
83633;BME280;73595;53.084;6.696;2023-11-21T20:13:29;102717.72;;;4.76;90.65
83633;BME280;73595;53.084;6.696;2023-11-21T20:15:55;102720.53;;;4.73;91.15
83633;BME280;73595;53.084;6.696;2023-11-21T20:18:20;102721.56;;;4.71;91.38
83633;BME280;73595;53.084;6.696;2023-11-21T20:20:45;102731.56;;;4.64;91.32
83633;BME280;73595;53.084;6.696;2023-11-21T20:23:11;102735.59;;;4.54;91.62
83633;BME280;73595;53.084;6.696;2023-11-21T20:25:36;102735.94;;;4.63;91.51
83633;BME280;73595;53.084;6.696;2023-11-21T20:28:02;102742.13;;;4.62;91.68
83633;BME280;73595;53.084;6.696;2023-11-21T20:30:27;102748.50;;;4.58;91.39
83633;BME280;73595;53.084;6.696;2023-11-21T20:32:53;102750.19;;;4.59;91.69
83633;BME280;73595;53.084;6.696;2023-11-21T20:35:18;102762.78;;;4.53;91.69
83633;BME280;73595;53.084;6.696;2023-11-21T20:37:44;102765.56;;;4.50;91.79
83633;BME280;73595;53.084;6.696;2023-11-21T20:40:11;102771.50;;;4.53;92.32
83633;BME280;73595;53.084;6.696;2023-11-21T20:42:36;102776.84;;;4.52;92.45
83633;BME280;73595;53.084;6.696;2023-11-21T20:45:07;102781.91;;;4.55;92.06
83633;BME280;73595;53.084;6.696;2023-11-21T20:47:34;102788.81;;;4.57;91.82
83633;BME280;73595;53.084;6.696;2023-11-21T20:50:00;102797.66;;;4.55;91.95
83633;BME280;73595;53.084;6.696;2023-11-21T20:52:25;102795.81;;;4.57;91.56
83633;BME280;73595;53.084;6.696;2023-11-21T20:54:51;102799.31;;;4.57;91.65
83633;BME280;73595;53.084;6.696;2023-11-21T20:57:16;102797.66;;;4.55;91.96
83633;BME280;73595;53.084;6.696;2023-11-21T20:59:41;102798.59;;;4.54;92.09
83633;BME280;73595;53.084;6.696;2023-11-21T21:02:08;102802.06;;;4.54;92.02
83633;BME280;73595;53.084;6.696;2023-11-21T21:04:33;102805.53;;;4.55;92.11
83633;BME280;73595;53.084;6.696;2023-11-21T21:06:58;102801.06;;;4.57;91.82
83633;BME280;73595;53.084;6.696;2023-11-21T21:09:23;102797.66;;;4.55;91.72
83633;BME280;73595;53.084;6.696;2023-11-21T21:11:49;102803.34;;;4.47;92.09
83633;BME280;73595;53.084;6.696;2023-11-21T21:14:14;102807.81;;;4.45;92.10
83633;BME280;73595;53.084;6.696;2023-11-21T21:16:39;102805.25;;;4.44;92.37
83633;BME280;73595;53.084;6.696;2023-11-21T21:19:05;102805.44;;;4.41;92.40
83633;BME280;73595;53.084;6.696;2023-11-21T21:21:33;102811.16;;;4.31;92.43
83633;BME280;73595;53.084;6.696;2023-11-21T21:23:59;102820.13;;;4.27;92.76
83633;BME280;73595;53.084;6.696;2023-11-21T21:26:24;102816.75;;;4.25;92.95
83633;BME280;73595;53.084;6.696;2023-11-21T21:28:50;102818.66;;;4.22;92.96
83633;BME280;73595;53.084;6.696;2023-11-21T21:31:15;102820.53;;;4.20;92.80
83633;BME280;73595;53.084;6.696;2023-11-21T21:33:41;102836.59;;;4.14;93.17
83633;BME280;73595;53.084;6.696;2023-11-21T21:36:12;102832.59;;;4.06;93.20
83633;BME280;73595;53.084;6.696;2023-11-21T21:38:37;102841.31;;;4.07;93.22
83633;BME280;73595;53.084;6.696;2023-11-21T21:41:07;102847.47;;;4.06;93.14
83633;BME280;73595;53.084;6.696;2023-11-21T21:43:35;102848.84;;;3.96;93.12
83633;BME280;73595;53.084;6.696;2023-11-21T21:46:05;102851.78;;;3.90;92.94
83633;BME280;73595;53.084;6.696;2023-11-21T21:48:33;102853.84;;;3.83;93.29
83633;BME280;73595;53.084;6.696;2023-11-21T21:50:58;102847.47;;;3.89;93.24
83633;BME280;73595;53.084;6.696;2023-11-21T21:53:23;102846.75;;;3.85;92.79
83633;BME280;73595;53.084;6.696;2023-11-21T21:55:49;102845.22;;;3.81;93.10
83633;BME280;73595;53.084;6.696;2023-11-21T21:58:23;102861.81;;;3.82;93.20
83633;BME280;73595;53.084;6.696;2023-11-21T22:00:48;102860.56;;;3.71;92.60
83633;BME280;73595;53.084;6.696;2023-11-21T22:03:13;102868.72;;;3.65;93.16
83633;BME280;73595;53.084;6.696;2023-11-21T22:05:39;102880.22;;;3.63;93.03
83633;BME280;73595;53.084;6.696;2023-11-21T22:08:05;102886.94;;;3.68;92.78
83633;BME280;73595;53.084;6.696;2023-11-21T22:10:30;102889.56;;;3.68;92.92
83633;BME280;73595;53.084;6.696;2023-11-21T22:12:58;102885.06;;;3.70;92.85
83633;BME280;73595;53.084;6.696;2023-11-21T22:15:23;102885.38;;;3.64;92.92
83633;BME280;73595;53.084;6.696;2023-11-21T22:17:49;102897.56;;;3.46;93.33
83633;BME280;73595;53.084;6.696;2023-11-21T22:20:17;102900.47;;;3.40;93.66
83633;BME280;73595;53.084;6.696;2023-11-21T22:22:44;102908.28;;;3.42;93.31
83633;BME280;73595;53.084;6.696;2023-11-21T22:25:10;102909.06;;;3.44;93.50
83633;BME280;73595;53.084;6.696;2023-11-21T22:27:36;102911.81;;;3.41;93.63
83633;BME280;73595;53.084;6.696;2023-11-21T22:30:01;102916.16;;;3.42;93.77
83633;BME280;73595;53.084;6.696;2023-11-21T22:32:28;102913.31;;;3.46;93.39
83633;BME280;73595;53.084;6.696;2023-11-21T22:34:53;102911.81;;;3.41;93.75
83633;BME280;73595;53.084;6.696;2023-11-21T22:37:19;102906.84;;;3.35;94.08
83633;BME280;73595;53.084;6.696;2023-11-21T22:39:44;102912.91;;;3.37;93.88
83633;BME280;73595;53.084;6.696;2023-11-21T22:42:11;102919.66;;;3.41;93.77
83633;BME280;73595;53.084;6.696;2023-11-21T22:44:36;102918.25;;;3.34;93.99
83633;BME280;73595;53.084;6.696;2023-11-21T22:47:01;102912.34;;;3.30;94.08
83633;BME280;73595;53.084;6.696;2023-11-21T22:49:28;102909.06;;;3.25;93.90
83633;BME280;73595;53.084;6.696;2023-11-21T22:51:57;102904.97;;;3.19;94.07
83633;BME280;73595;53.084;6.696;2023-11-21T22:54:22;102912.19;;;3.14;93.96
83633;BME280;73595;53.084;6.696;2023-11-21T22:56:48;102920.19;;;3.11;94.14
83633;BME280;73595;53.084;6.696;2023-11-21T22:59:16;102924.69;;;3.08;94.44
83633;BME280;73595;53.084;6.696;2023-11-21T23:01:41;102924.94;;;3.03;94.36
83633;BME280;73595;53.084;6.696;2023-11-21T23:04:06;102936.38;;;3.01;94.32